createdAt,value
2019-02-06T00:01:14.722Z,38.23
2019-02-06T00:03:45.323Z,41.97
2019-02-06T00:06:15.682Z,39.57
2019-02-06T00:08:46.114Z,38.17
2019-02-06T00:11:16.767Z,42.80
2019-02-06T00:13:47.954Z,42.20
2019-02-06T00:16:18.294Z,40.83
2019-02-06T00:18:48.692Z,38.03
2019-02-06T00:21:20.595Z,37.13
2019-02-06T00:23:51.487Z,40.70
2019-02-06T00:26:21.817Z,40.57
2019-02-06T00:28:52.561Z,42.30
2019-02-06T00:31:22.942Z,39.83
2019-02-06T00:33:53.914Z,41.87
2019-02-06T00:36:24.637Z,38.97
2019-02-06T00:38:55.326Z,42.77
2019-02-06T00:41:25.686Z,43.40
2019-02-06T00:43:56.071Z,39.50
2019-02-06T00:46:26.438Z,40.70
2019-02-06T00:48:56.830Z,36.23
2019-02-06T00:51:27.217Z,41.93
2019-02-06T00:53:57.566Z,37.13
2019-02-06T00:56:27.943Z,43.70
2019-02-06T00:58:58.301Z,40.10
2019-02-06T01:01:28.695Z,41.10
2019-02-06T01:04:00.109Z,44.50
2019-02-06T01:06:30.682Z,37.33
2019-02-06T01:09:01.034Z,38.47
2019-02-06T01:11:32.993Z,40.03
2019-02-06T01:14:03.538Z,38.13
2019-02-06T01:16:34.222Z,39.43
2019-02-06T01:19:04.775Z,38.77
2019-02-06T01:21:36.314Z,36.47
2019-02-06T01:24:06.667Z,41.53
2019-02-06T01:26:37.410Z,36.10
2019-02-06T01:29:07.791Z,39.67
2019-02-06T01:31:38.228Z,42.37
2019-02-06T01:34:09.051Z,41.17
2019-02-06T01:36:39.402Z,38.13
2019-02-06T01:39:13.020Z,38.13
2019-02-06T01:41:43.413Z,40.90
2019-02-06T01:44:13.781Z,39.77
2019-02-06T01:46:44.138Z,40.70
2019-02-06T01:49:14.491Z,33.40
2019-02-06T01:51:44.962Z,37.50
2019-02-06T01:54:15.297Z,37.03
2019-02-06T01:56:45.695Z,35.20
2019-02-06T01:59:16.037Z,37.70
2019-02-06T02:01:46.822Z,37.27
2019-02-06T02:04:17.179Z,37.40
2019-02-06T02:06:47.578Z,36.67
2019-02-06T02:09:21.070Z,36.33
2019-02-06T02:11:51.469Z,39.37
2019-02-06T02:14:21.822Z,37.47
2019-02-06T02:16:52.289Z,35.27
2019-02-06T02:19:22.627Z,37.80
2019-02-06T02:21:54.398Z,37.37
2019-02-06T02:24:24.761Z,38.17
2019-02-06T02:26:55.119Z,36.23
2019-02-06T02:29:25.779Z,36.93
2019-02-06T02:31:56.226Z,36.63
2019-02-06T02:34:26.675Z,37.40
2019-02-06T02:36:57.031Z,35.23
2019-02-06T02:39:27.488Z,36.40
2019-02-06T02:41:57.846Z,37.83
2019-02-06T02:44:28.653Z,35.67
2019-02-06T02:46:59.010Z,36.20
2019-02-06T02:49:29.608Z,36.80
2019-02-06T02:52:00.067Z,37.90
2019-02-06T02:54:30.502Z,35.63
2019-02-06T02:57:01.138Z,32.07
2019-02-06T02:59:31.546Z,37.40
2019-02-06T03:02:39.318Z,35.93
2019-02-06T03:05:14.070Z,36.10
2019-02-06T03:07:44.417Z,34.80
2019-02-06T03:10:14.972Z,33.60
2019-02-06T03:12:45.318Z,36.13
2019-02-06T03:15:15.775Z,32.10
2019-02-06T03:17:46.154Z,34.30
2019-02-06T03:20:16.850Z,33.37
2019-02-06T03:22:47.318Z,34.60
2019-02-06T03:25:19.098Z,32.50
2019-02-06T03:27:49.466Z,33.97
2019-02-06T03:30:21.586Z,31.90
2019-02-06T03:32:51.920Z,34.40
2019-02-06T03:35:22.866Z,36.17
2019-02-06T03:37:53.221Z,32.30
2019-02-06T03:40:23.622Z,37.27
2019-02-06T03:42:53.964Z,33.63
2019-02-06T03:45:24.430Z,36.27
2019-02-06T03:47:54.866Z,31.03
2019-02-06T03:50:25.649Z,36.27
2019-02-06T03:52:56.000Z,37.23
2019-02-06T03:55:26.890Z,34.00
2019-02-06T03:57:57.639Z,36.97
2019-02-06T04:00:28.259Z,37.33
2019-02-06T04:02:58.595Z,35.53
2019-02-06T04:05:29.131Z,35.37
2019-02-06T04:07:59.466Z,34.80
2019-02-06T04:10:29.931Z,37.67
2019-02-06T04:13:00.486Z,38.30
2019-02-06T04:15:31.951Z,38.53
2019-02-06T04:18:02.292Z,39.77
2019-02-06T04:20:32.658Z,40.20
2019-02-06T04:23:03.035Z,36.60
2019-02-06T04:25:34.882Z,36.57
2019-02-06T04:28:05.234Z,38.67
2019-02-06T04:30:35.613Z,42.43
2019-02-06T04:33:06.026Z,39.20
2019-02-06T04:35:36.967Z,36.50
2019-02-06T04:38:07.320Z,38.73
2019-02-06T04:40:37.714Z,37.33
2019-02-06T04:43:08.092Z,38.70
2019-02-06T04:45:38.739Z,38.33
2019-02-06T04:48:09.105Z,39.47
2019-02-06T04:50:39.524Z,43.43
2019-02-06T04:53:10.289Z,39.60
2019-02-06T04:55:40.676Z,37.27
2019-02-06T04:58:22.783Z,39.23
2019-02-06T05:00:53.594Z,39.77
2019-02-06T05:03:25.881Z,40.53
2019-02-06T05:06:07.718Z,43.27
2019-02-06T05:08:38.059Z,37.23
2019-02-06T05:11:08.479Z,38.33
2019-02-06T05:13:38.830Z,40.03
2019-02-06T05:16:09.215Z,44.73
2019-02-06T05:18:39.578Z,44.10
2019-02-06T05:21:11.043Z,44.27
2019-02-06T05:23:53.242Z,46.63
2019-02-06T05:26:23.609Z,44.97
2019-02-06T05:28:54.355Z,46.17
2019-02-06T05:31:24.751Z,42.93
2019-02-06T05:33:55.122Z,50.73
2019-02-06T05:36:25.558Z,42.60
2019-02-06T05:38:55.942Z,42.10
2019-02-06T05:41:26.341Z,45.43
2019-02-06T05:43:57.092Z,52.20
2019-02-06T05:46:27.581Z,51.00
2019-02-06T05:48:57.918Z,48.30
2019-02-06T05:51:28.346Z,50.37
2019-02-06T05:53:58.696Z,49.17
2019-02-06T05:56:29.090Z,52.67
2019-02-06T05:58:59.527Z,49.00
2019-02-06T06:01:29.947Z,47.47
2019-02-06T06:04:00.291Z,58.27
2019-02-06T06:06:30.731Z,46.93
2019-02-06T06:09:01.054Z,54.17
2019-02-06T06:11:31.584Z,53.23
2019-02-06T06:14:03.411Z,58.57
2019-02-06T06:16:33.802Z,57.87
2019-02-06T06:19:04.265Z,63.00
2019-02-06T06:21:34.652Z,58.93
2019-02-06T06:24:05.339Z,55.13
2019-02-06T06:26:37.423Z,72.63
2019-02-06T06:29:07.785Z,69.20
2019-02-06T06:31:39.230Z,75.03
2019-02-06T06:34:09.577Z,75.53
2019-02-06T06:36:40.073Z,66.50
2019-02-06T06:39:10.372Z,77.00
2019-02-06T06:41:40.891Z,86.73
2019-02-06T06:44:11.642Z,88.43
2019-02-06T06:46:42.077Z,88.30
2019-02-06T06:49:14.407Z,97.97
2019-02-06T06:51:44.800Z,105.10
2019-02-06T06:54:15.470Z,102.00
2019-02-06T06:56:46.194Z,98.77
2019-02-06T06:59:16.660Z,104.73
2019-02-06T07:01:47.040Z,96.80
2019-02-06T07:04:17.393Z,107.07
2019-02-06T07:06:47.769Z,104.03
2019-02-06T07:09:18.377Z,95.87
2019-02-06T07:11:48.718Z,103.87
2019-02-06T07:14:19.098Z,96.27
2019-02-06T07:16:49.442Z,99.57
2019-02-06T07:19:19.864Z,98.47
2019-02-06T07:21:50.595Z,99.47
2019-02-06T07:24:21.210Z,93.57
2019-02-06T07:26:51.549Z,80.73
2019-02-06T07:29:21.966Z,88.80
2019-02-06T07:31:52.305Z,92.17
2019-02-06T07:34:23.050Z,90.20
2019-02-06T07:36:53.571Z,79.30
2019-02-06T07:39:24.337Z,87.63
2019-02-06T07:41:54.695Z,78.47
2019-02-06T07:44:25.517Z,79.43
2019-02-06T07:46:56.915Z,77.83
2019-02-06T07:49:27.341Z,73.53
2019-02-06T07:51:58.665Z,70.17
2019-02-06T07:54:29.834Z,71.53
2019-02-06T07:57:00.534Z,75.13
2019-02-06T07:59:31.251Z,65.77
2019-02-06T08:02:01.718Z,69.83
2019-02-06T08:04:32.430Z,71.40
2019-02-06T08:07:02.818Z,70.30
2019-02-06T08:09:33.178Z,66.70
2019-02-06T08:12:03.784Z,67.63
2019-02-06T08:14:34.135Z,65.67
2019-02-06T08:17:04.737Z,70.43
2019-02-06T08:19:36.039Z,68.83
2019-02-06T08:22:06.819Z,59.50
2019-02-06T08:24:37.466Z,64.10
2019-02-06T08:27:07.886Z,64.90
2019-02-06T08:29:38.236Z,63.80
2019-02-06T08:32:09.246Z,57.13
2019-02-06T08:34:41.057Z,59.33
2019-02-06T08:37:11.883Z,63.30
2019-02-06T08:39:42.308Z,62.53
2019-02-06T08:42:12.746Z,61.50
2019-02-06T08:44:43.329Z,57.83
2019-02-06T08:47:13.764Z,57.13
2019-02-06T08:49:44.140Z,55.37
2019-02-06T08:52:15.990Z,56.53
2019-02-06T08:54:46.743Z,53.37
2019-02-06T08:57:17.114Z,49.70
2019-02-06T08:59:47.691Z,52.13
2019-02-06T09:02:19.766Z,49.57
2019-02-06T09:04:55.968Z,49.13
2019-02-06T09:07:23.549Z,49.03
2019-02-06T09:09:55.646Z,53.97
2019-02-06T09:12:28.372Z,54.37
2019-02-06T09:15:01.363Z,51.13
2019-02-06T09:17:31.714Z,48.77
2019-02-06T09:20:02.934Z,50.57
2019-02-06T09:22:33.338Z,48.20
2019-02-06T09:25:03.994Z,47.07
2019-02-06T09:27:34.350Z,44.67
2019-02-06T09:30:05.578Z,48.17
2019-02-06T09:32:35.961Z,44.83
2019-02-06T09:35:06.562Z,45.43
2019-02-06T09:37:38.503Z,44.47
2019-02-06T09:40:10.731Z,41.40
2019-02-06T09:42:42.231Z,46.73
2019-02-06T09:45:14.294Z,44.00
2019-02-06T09:47:44.816Z,45.83
2019-02-06T09:50:21.494Z,40.87
2019-02-06T09:52:51.898Z,47.33
2019-02-06T09:55:22.297Z,38.90
2019-02-06T09:57:52.670Z,39.93
2019-02-06T10:00:25.590Z,36.53
2019-02-06T10:02:56.659Z,39.90
2019-02-06T10:05:27.026Z,36.80
2019-02-06T10:07:57.552Z,37.27
2019-02-06T10:10:28.422Z,37.63
2019-02-06T10:13:00.882Z,39.70
2019-02-06T10:15:33.344Z,36.30
2019-02-06T10:18:04.245Z,37.93
2019-02-06T10:20:49.365Z,37.33
2019-02-06T10:23:20.290Z,36.90
2019-02-06T10:25:53.488Z,35.07
2019-02-06T10:28:24.259Z,37.07
2019-02-06T10:30:54.872Z,33.90
2019-02-06T10:33:25.281Z,34.50
2019-02-06T10:35:55.651Z,35.73
2019-02-06T10:38:26.206Z,34.37
2019-02-06T10:40:56.862Z,35.13
2019-02-06T10:43:32.030Z,35.23
2019-02-06T10:46:00.022Z,32.43
2019-02-06T10:48:30.400Z,31.57
2019-02-06T10:51:00.808Z,34.57
2019-02-06T10:53:31.390Z,34.83
2019-02-06T10:56:02.367Z,33.20
2019-02-06T10:58:33.835Z,33.00
2019-02-06T11:01:05.286Z,33.30
2019-02-06T11:03:37.014Z,27.73
2019-02-06T11:06:07.482Z,27.53
2019-02-06T11:08:38.679Z,38.07
2019-02-06T11:11:09.048Z,28.53
2019-02-06T11:13:39.722Z,26.93
2019-02-06T11:16:10.071Z,29.10
2019-02-06T11:18:40.562Z,22.67
2019-02-06T11:21:11.570Z,22.67
2019-02-06T11:23:42.709Z,24.13
2019-02-06T11:26:13.493Z,19.60
2019-02-06T11:28:43.884Z,20.57
2019-02-06T11:31:15.004Z,21.63
2019-02-06T11:33:46.082Z,23.40
2019-02-06T11:36:23.907Z,19.60
2019-02-06T11:38:49.107Z,19.20
2019-02-06T11:41:19.771Z,20.50
2019-02-06T11:43:50.186Z,19.97
2019-02-06T11:46:20.554Z,20.40
2019-02-06T11:48:51.015Z,21.40
2019-02-06T11:51:24.358Z,17.47
2019-02-06T11:53:54.130Z,21.37
2019-02-06T11:56:24.851Z,18.13
2019-02-06T11:58:55.278Z,16.80
2019-02-06T12:01:31.514Z,18.30
2019-02-06T12:04:01.931Z,18.23
2019-02-06T12:06:33.656Z,19.63
2019-02-06T12:09:06.151Z,18.27
2019-02-06T12:11:36.498Z,16.27
2019-02-06T12:14:07.099Z,16.63
2019-02-06T12:16:37.755Z,16.33
2019-02-06T12:19:08.231Z,16.27
2019-02-06T12:21:38.599Z,17.73
2019-02-06T12:24:09.373Z,18.43
2019-02-06T12:26:39.719Z,17.97
2019-02-06T12:29:12.183Z,17.63
2019-02-06T12:31:43.802Z,19.17
2019-02-06T12:34:14.523Z,17.87
2019-02-06T12:36:44.859Z,15.57
2019-02-06T12:39:15.418Z,16.37
2019-02-06T12:41:46.366Z,17.00
2019-02-06T12:44:16.842Z,19.63
2019-02-06T12:46:47.594Z,18.10
2019-02-06T12:49:19.270Z,18.20
2019-02-06T12:51:52.359Z,17.77
2019-02-06T12:54:21.643Z,16.37
2019-02-06T12:56:52.007Z,19.30
2019-02-06T12:59:22.458Z,18.20
2019-02-06T13:01:52.875Z,18.60
2019-02-06T13:04:23.390Z,15.63
2019-02-06T13:06:53.834Z,16.93
2019-02-06T13:09:25.895Z,16.40
2019-02-06T13:11:56.250Z,17.47
2019-02-06T13:14:27.333Z,16.30
2019-02-06T13:16:57.782Z,16.70
2019-02-06T13:19:28.524Z,15.23
2019-02-06T13:21:59.204Z,19.93
2019-02-06T13:24:29.682Z,17.30
2019-02-06T13:27:00.046Z,16.20
2019-02-06T13:29:30.442Z,15.73
2019-02-06T13:32:00.806Z,16.27
2019-02-06T13:34:31.206Z,18.73
2019-02-06T13:37:01.562Z,18.13
2019-02-06T13:39:32.077Z,16.13
2019-02-06T13:42:05.502Z,18.17
2019-02-06T13:44:34.755Z,18.63
2019-02-06T13:47:05.310Z,15.20
2019-02-06T13:49:35.799Z,16.27
2019-02-06T13:52:06.602Z,18.17
2019-02-06T13:54:37.354Z,16.87
2019-02-06T13:57:07.750Z,16.97
2019-02-06T13:59:38.157Z,15.87
2019-02-06T14:02:08.502Z,15.63
2019-02-06T14:04:38.929Z,16.90
2019-02-06T14:07:09.269Z,17.07
2019-02-06T14:09:40.118Z,18.97
2019-02-06T14:12:13.542Z,18.77
2019-02-06T14:14:44.990Z,18.87
2019-02-06T14:17:18.122Z,16.93
2019-02-06T14:19:48.790Z,17.57
2019-02-06T14:22:19.436Z,17.60
2019-02-06T14:25:01.696Z,18.70
2019-02-06T14:28:14.586Z,18.93
2019-02-06T14:31:32.972Z,21.23
2019-02-06T14:34:15.445Z,19.53
2019-02-06T14:37:08.951Z,19.53
2019-02-06T14:40:13.235Z,24.10
2019-02-06T14:43:18.428Z,20.00
2019-02-06T14:46:34.790Z,22.40
2019-02-06T14:49:36.991Z,23.73
2019-02-06T14:52:51.423Z,24.87
2019-02-06T14:55:46.923Z,28.13
2019-02-06T14:58:53.014Z,23.23
2019-02-06T15:02:19.907Z,21.77
2019-02-06T15:05:13.842Z,24.50
2019-02-06T15:08:27.822Z,23.50
2019-02-06T15:11:19.386Z,23.47
2019-02-06T15:14:28.730Z,25.07
2019-02-06T15:17:46.886Z,25.93
2019-02-06T15:20:44.487Z,24.40
2019-02-06T15:24:06.483Z,27.13
2019-02-06T15:26:54.063Z,24.43
2019-02-06T15:30:02.844Z,25.50
2019-02-06T15:33:32.646Z,24.73
2019-02-06T15:36:34.942Z,26.67
2019-02-06T15:39:34.510Z,28.10
2019-02-06T15:42:39.393Z,25.17
2019-02-06T15:45:35.822Z,27.17
2019-02-06T15:48:40.559Z,25.70
2019-02-06T15:51:56.442Z,23.60
2019-02-06T15:54:56.418Z,23.67
2019-02-06T15:58:07.197Z,25.63
2019-02-06T16:00:51.907Z,26.53
2019-02-06T16:04:20.520Z,26.63
2019-02-06T16:07:13.771Z,25.60
2019-02-06T16:10:20.238Z,26.87
2019-02-06T16:13:27.424Z,25.17
2019-02-06T16:16:40.623Z,23.77
2019-02-06T16:19:52.355Z,24.93
2019-02-06T16:22:47.482Z,22.70
2019-02-06T16:25:39.019Z,22.43
2019-02-06T16:28:21.575Z,24.53
2019-02-06T16:31:23.028Z,23.97
2019-02-06T16:34:13.701Z,21.33
2019-02-06T16:37:25.040Z,23.63
2019-02-06T16:40:32.766Z,23.03
2019-02-06T16:43:19.960Z,23.40
2019-02-06T16:46:30.710Z,24.30
2019-02-06T16:49:20.829Z,24.57
2019-02-06T16:52:15.338Z,26.03
2019-02-06T16:55:21.074Z,21.83
2019-02-06T16:58:28.582Z,27.60
2019-02-06T17:01:32.883Z,24.03
2019-02-06T17:04:37.986Z,23.37
2019-02-06T17:07:41.048Z,25.50
2019-02-06T17:11:01.311Z,28.10
2019-02-06T17:13:55.402Z,28.87
2019-02-06T17:17:02.538Z,24.03
2019-02-06T17:20:33.262Z,29.57
2019-02-06T17:23:37.146Z,27.17
2019-02-06T17:26:57.671Z,25.30
2019-02-06T17:29:49.568Z,26.47
2019-02-06T17:33:03.346Z,30.77
2019-02-06T17:36:00.704Z,25.30
2019-02-06T17:38:56.402Z,25.77
2019-02-06T17:41:40.034Z,27.97
2019-02-06T17:44:39.778Z,28.70
2019-02-06T17:47:43.166Z,31.10
2019-02-06T17:50:43.823Z,30.10
2019-02-06T17:53:26.310Z,32.37
2019-02-06T17:55:56.828Z,26.67
2019-02-06T17:58:29.719Z,30.00
2019-02-06T18:01:40.383Z,30.37
2019-02-06T18:04:13.494Z,29.80
2019-02-06T18:07:04.370Z,28.53
2019-02-06T18:09:34.718Z,29.60
2019-02-06T18:12:06.950Z,32.60
2019-02-06T18:14:37.399Z,34.23
2019-02-06T18:17:07.770Z,29.20
2019-02-06T18:19:40.149Z,30.77
2019-02-06T18:22:11.607Z,32.03
2019-02-06T18:24:42.302Z,33.37
2019-02-06T18:27:13.670Z,30.43
2019-02-06T18:29:44.010Z,32.77
2019-02-06T18:32:14.397Z,33.63
2019-02-06T18:34:44.802Z,32.93
2019-02-06T18:37:15.245Z,36.43
2019-02-06T18:39:45.578Z,30.03
2019-02-06T18:42:16.010Z,31.87
2019-02-06T18:44:46.369Z,31.97
2019-02-06T18:47:16.760Z,34.23
2019-02-06T18:50:08.419Z,32.53
2019-02-06T18:52:38.822Z,33.70
2019-02-06T18:55:09.170Z,32.40
2019-02-06T18:57:40.156Z,32.17
2019-02-06T19:00:17.787Z,34.63
2019-02-06T19:02:49.280Z,34.20
2019-02-06T19:05:20.810Z,33.20
2019-02-06T19:07:52.264Z,30.93
2019-02-06T19:10:23.762Z,31.13
2019-02-06T19:12:54.146Z,34.63
2019-02-06T19:15:24.497Z,31.13
2019-02-06T19:17:54.996Z,33.30
2019-02-06T19:20:25.352Z,36.80
2019-02-06T19:22:56.046Z,34.80
2019-02-06T19:25:26.398Z,34.47
2019-02-06T19:27:56.819Z,34.83
2019-02-06T19:30:29.792Z,31.13
2019-02-06T19:33:00.200Z,34.20
2019-02-06T19:35:30.614Z,33.80
2019-02-06T19:38:01.089Z,35.07
2019-02-06T19:40:32.522Z,34.47
2019-02-06T19:43:02.979Z,32.57
2019-02-06T19:45:34.467Z,31.57
2019-02-06T19:48:15.262Z,30.70
2019-02-06T19:50:41.231Z,33.63
2019-02-06T19:53:12.723Z,31.97
2019-02-06T19:55:43.058Z,33.57
2019-02-06T19:58:13.882Z,33.73
2019-02-06T20:00:44.231Z,32.57
2019-02-06T20:03:14.738Z,30.07
2019-02-06T20:05:45.082Z,34.23
2019-02-06T20:08:15.823Z,35.37
2019-02-06T20:10:47.774Z,31.87
2019-02-06T20:13:18.155Z,31.43
2019-02-06T20:15:48.506Z,33.03
2019-02-06T20:18:18.905Z,29.43
2019-02-06T20:20:49.911Z,31.23
2019-02-06T20:23:20.461Z,32.40
2019-02-06T20:25:50.786Z,35.73
2019-02-06T20:28:21.462Z,34.83
2019-02-06T20:30:51.798Z,32.80
2019-02-06T20:33:22.546Z,37.20
2019-02-06T20:35:53.939Z,32.70
2019-02-06T20:38:24.363Z,34.20
2019-02-06T20:40:54.712Z,34.57
2019-02-06T20:43:26.878Z,35.23
2019-02-06T20:45:57.244Z,34.87
2019-02-06T20:48:27.631Z,32.20
2019-02-06T20:50:59.796Z,35.00
2019-02-06T20:53:31.329Z,36.53
2019-02-06T20:56:02.031Z,29.27
2019-02-06T20:58:32.554Z,30.90
2019-02-06T21:01:04.011Z,31.30
2019-02-06T21:03:34.735Z,32.33
2019-02-06T21:06:05.193Z,30.80
2019-02-06T21:08:35.663Z,28.47
2019-02-06T21:11:06.144Z,30.73
2019-02-06T21:13:36.547Z,28.83
2019-02-06T21:16:07.290Z,33.73
2019-02-06T21:18:37.814Z,29.73
2019-02-06T21:21:08.165Z,31.50
2019-02-06T21:23:38.639Z,32.17
2019-02-06T21:26:08.990Z,31.53
2019-02-06T21:28:39.502Z,31.40
2019-02-06T21:31:09.872Z,30.97
2019-02-06T21:33:40.302Z,31.47
2019-02-06T21:36:10.642Z,32.00
2019-02-06T21:38:41.066Z,30.37
2019-02-06T21:41:11.420Z,27.70
2019-02-06T21:43:44.418Z,29.47
2019-02-06T21:46:14.911Z,30.93
2019-02-06T21:48:45.631Z,27.80
2019-02-06T21:51:15.983Z,30.33
2019-02-06T21:53:46.382Z,31.43
2019-02-06T21:56:17.101Z,32.27
2019-02-06T21:58:47.507Z,32.70
2019-02-06T22:01:17.861Z,33.77
2019-02-06T22:03:48.267Z,29.90
2019-02-06T22:06:18.633Z,26.60
2019-02-06T22:08:49.163Z,29.03
2019-02-06T22:11:20.391Z,28.97
2019-02-06T22:13:55.255Z,30.53
2019-02-06T22:16:23.109Z,28.00
2019-02-06T22:18:53.242Z,31.27
2019-02-06T22:21:23.330Z,26.20
2019-02-06T22:23:55.014Z,30.23
2019-02-06T22:26:25.200Z,27.63
2019-02-06T22:28:55.317Z,27.43
2019-02-06T22:31:25.444Z,26.13
2019-02-06T22:33:55.564Z,29.00
2019-02-06T22:36:25.783Z,29.37
2019-02-06T22:38:55.877Z,27.77
2019-02-06T22:41:25.990Z,25.77
2019-02-06T22:44:05.994Z,28.07
2019-02-06T22:46:28.412Z,27.30
2019-02-06T22:48:58.498Z,28.50
2019-02-06T22:51:28.848Z,26.63
2019-02-06T22:54:00.687Z,30.20
2019-02-06T22:56:30.826Z,24.47
2019-02-06T22:59:00.922Z,26.30
2019-02-06T23:01:35.781Z,28.90
2019-02-06T23:04:06.463Z,27.60
2019-02-06T23:06:36.623Z,28.43
2019-02-06T23:09:08.722Z,27.73
2019-02-06T23:11:39.183Z,27.00
2019-02-06T23:14:17.201Z,27.87
2019-02-06T23:16:41.238Z,29.67
2019-02-06T23:19:11.471Z,27.20
2019-02-06T23:21:41.594Z,28.40
2019-02-06T23:24:11.743Z,26.90
2019-02-06T23:26:41.903Z,26.23
2019-02-06T23:29:12.121Z,30.47
2019-02-06T23:31:42.318Z,25.97
2019-02-06T23:34:12.438Z,27.07
2019-02-06T23:36:42.563Z,28.57
2019-02-06T23:39:15.689Z,25.70
2019-02-06T23:41:45.772Z,25.93
2019-02-06T23:44:16.753Z,27.60
2019-02-06T23:46:47.825Z,27.80
2019-02-06T23:49:18.047Z,30.10
2019-02-06T23:51:48.143Z,28.30
2019-02-06T23:54:18.282Z,28.30
2019-02-06T23:56:48.419Z,31.50
2019-02-06T23:59:18.503Z,29.97
